Time;durP1;ratioP1;P1;durP2;ratioP2;P2;SDS_P1;SDS_P2;PMS_P1;PMS_P2;Temp;Humidity;BMP_temperature;BMP_pressure;BME280_temperature;BME280_humidity;BME280_pressure;Samples;Min_cycle;Max_cycle;Signal;HPM_P1;HPM_P2
2023/11/06 00:01:16;;;;;;;8.77;5.25;;;;;;;;;;5016614;28;20194;-71
2023/11/06 00:03:41;;;;;;;10.70;4.97;;;;;;;;;;5043014;28;20206;-70
2023/11/06 00:06:08;;;;;;;10.52;4.93;;;;;;;;;;5030270;28;20193;-69
2023/11/06 00:08:33;;;;;;;12.25;5.10;;;;;;;;;;5032666;28;20576;-70
2023/11/06 00:10:58;;;;;;;12.70;5.78;;;;;;;;;;5025349;28;20226;-70
2023/11/06 00:13:24;;;;;;;12.77;5.93;;;;;;;;;;5031148;28;20269;-70
2023/11/06 00:15:49;;;;;;;12.95;5.72;;;;;;;;;;5013663;28;20246;-70
2023/11/06 00:18:14;;;;;;;13.13;5.85;;;;;;;;;;5046421;28;20198;-70
2023/11/06 00:20:40;;;;;;;7.70;5.60;;;;;;;;;;5027969;28;20196;-72
2023/11/06 00:23:05;;;;;;;8.63;6.03;;;;;;;;;;5028546;28;20287;-71
2023/11/06 00:25:31;;;;;;;10.57;6.18;;;;;;;;;;5030873;28;20217;-70
2023/11/06 00:27:56;;;;;;;10.52;6.70;;;;;;;;;;5019984;28;20340;-70
2023/11/06 00:30:22;;;;;;;10.68;6.13;;;;;;;;;;5030383;28;20268;-70
2023/11/06 00:32:47;;;;;;;14.50;6.95;;;;;;;;;;5023519;28;20223;-71
2023/11/06 00:35:13;;;;;;;13.20;6.63;;;;;;;;;;5024867;28;20634;-71
2023/11/06 00:37:39;;;;;;;13.40;6.78;;;;;;;;;;5034500;28;20593;-69
2023/11/06 00:40:06;;;;;;;14.15;7.47;;;;;;;;;;5019238;28;20287;-72
2023/11/06 00:42:31;;;;;;;16.38;7.43;;;;;;;;;;5023051;28;20228;-70
2023/11/06 00:44:57;;;;;;;16.08;6.40;;;;;;;;;;5029822;28;20194;-69
2023/11/06 00:47:22;;;;;;;16.55;6.80;;;;;;;;;;5020276;28;20711;-71
2023/11/06 00:49:48;;;;;;;13.85;6.88;;;;;;;;;;5027084;28;20638;-70
2023/11/06 00:52:13;;;;;;;12.00;6.93;;;;;;;;;;5027063;28;20305;-71
2023/11/06 00:54:40;;;;;;;17.70;6.30;;;;;;;;;;5022322;28;20225;-71
2023/11/06 00:57:06;;;;;;;14.00;6.22;;;;;;;;;;5030919;28;20277;-70
2023/11/06 00:59:31;;;;;;;16.05;5.88;;;;;;;;;;5028559;28;20269;-71
2023/11/06 01:01:56;;;;;;;14.75;6.25;;;;;;;;;;5020293;28;20223;-70
2023/11/06 01:04:22;;;;;;;10.38;5.95;;;;;;;;;;5025579;28;20182;-70
2023/11/06 01:06:48;;;;;;;13.10;5.35;;;;;;;;;;5026841;28;20206;-69
2023/11/06 01:09:13;;;;;;;13.15;4.90;;;;;;;;;;5023785;28;20202;-73
2023/11/06 01:11:39;;;;;;;13.07;5.30;;;;;;;;;;5025202;28;20554;-71
2023/11/06 01:14:04;;;;;;;12.98;5.30;;;;;;;;;;5026841;28;20182;-71
2023/11/06 01:16:30;;;;;;;12.25;5.65;;;;;;;;;;5027472;28;20225;-70
2023/11/06 01:18:55;;;;;;;17.70;6.63;;;;;;;;;;5025877;28;20202;-69
2023/11/06 01:21:21;;;;;;;15.95;5.40;;;;;;;;;;5031516;28;20213;-72
2023/11/06 01:23:46;;;;;;;14.18;5.50;;;;;;;;;;5024091;28;20197;-71
2023/11/06 01:26:11;;;;;;;12.88;5.40;;;;;;;;;;5026629;28;20207;-71
2023/11/06 01:28:37;;;;;;;10.35;5.47;;;;;;;;;;5024423;28;20189;-71
2023/11/06 01:31:02;;;;;;;11.23;5.45;;;;;;;;;;5028950;28;20186;-71
2023/11/06 01:33:28;;;;;;;13.88;5.32;;;;;;;;;;5023242;28;20449;-70
2023/11/06 01:35:53;;;;;;;12.70;4.70;;;;;;;;;;5021067;28;20217;-69
2023/11/06 01:38:19;;;;;;;9.52;4.53;;;;;;;;;;5032016;28;20293;-70
2023/11/06 01:40:44;;;;;;;12.02;4.45;;;;;;;;;;5018917;28;20190;-69
2023/11/06 01:43:10;;;;;;;8.48;4.07;;;;;;;;;;5032319;28;20292;-69
2023/11/06 01:45:36;;;;;;;14.23;4.20;;;;;;;;;;5040536;28;20252;-69
2023/11/06 01:48:03;;;;;;;8.45;3.40;;;;;;;;;;5025993;28;20603;-69
2023/11/06 01:50:31;;;;;;;13.32;3.50;;;;;;;;;;5029961;28;20513;-70
2023/11/06 01:52:57;;;;;;;9.48;3.17;;;;;;;;;;5030368;28;20878;-70
2023/11/06 01:55:23;;;;;;;11.25;2.95;;;;;;;;;;5017932;28;20183;-71
2023/11/06 01:57:48;;;;;;;11.15;2.42;;;;;;;;;;5025131;28;20197;-72
2023/11/06 02:00:15;;;;;;;10.02;2.50;;;;;;;;;;5016991;28;20214;-72
2023/11/06 02:02:43;;;;;;;11.43;2.70;;;;;;;;;;5019426;28;20211;-71
2023/11/06 02:05:09;;;;;;;8.68;2.63;;;;;;;;;;5016621;28;20198;-72
2023/11/06 02:07:35;;;;;;;5.68;2.30;;;;;;;;;;5026837;28;20186;-70
2023/11/06 02:10:01;;;;;;;9.93;2.33;;;;;;;;;;5029364;28;21020;-71
2023/11/06 02:12:26;;;;;;;8.23;2.63;;;;;;;;;;5019823;28;20207;-69
2023/11/06 02:14:53;;;;;;;8.75;1.95;;;;;;;;;;5016947;28;20619;-71
2023/11/06 02:17:19;;;;;;;9.35;2.70;;;;;;;;;;5026465;28;20233;-70
2023/11/06 02:19:45;;;;;;;5.70;2.42;;;;;;;;;;5022520;28;20186;-70
2023/11/06 02:22:13;;;;;;;10.45;2.70;;;;;;;;;;5022150;28;20553;-70
2023/11/06 02:24:38;;;;;;;9.20;2.70;;;;;;;;;;5018589;28;20191;-70
2023/11/06 02:27:04;;;;;;;9.95;2.65;;;;;;;;;;5022334;28;20201;-72
2023/11/06 02:29:29;;;;;;;7.20;2.28;;;;;;;;;;5027462;28;20225;-73
2023/11/06 02:31:56;;;;;;;5.85;2.88;;;;;;;;;;5017416;28;20666;-71
2023/11/06 02:34:22;;;;;;;12.40;2.67;;;;;;;;;;5019782;28;20182;-71
2023/11/06 02:36:48;;;;;;;12.18;2.20;;;;;;;;;;5034236;28;20193;-72
2023/11/06 02:39:14;;;;;;;5.50;2.17;;;;;;;;;;5030385;28;20229;-70
2023/11/06 02:41:39;;;;;;;5.38;2.10;;;;;;;;;;5018461;28;20187;-71
2023/11/06 02:44:04;;;;;;;5.25;1.70;;;;;;;;;;5012264;28;20199;-70
2023/11/06 02:46:30;;;;;;;7.38;2.53;;;;;;;;;;5024306;28;20201;-70
2023/11/06 02:48:55;;;;;;;8.63;1.90;;;;;;;;;;5019340;28;20272;-70
2023/11/06 02:51:21;;;;;;;6.90;1.98;;;;;;;;;;5028618;28;20273;-70
2023/11/06 02:53:46;;;;;;;9.63;1.90;;;;;;;;;;5025968;28;20194;-70
2023/11/06 02:56:12;;;;;;;10.40;2.05;;;;;;;;;;5028531;28;20244;-70
2023/11/06 02:58:37;;;;;;;5.97;2.15;;;;;;;;;;5025281;28;20194;-71
2023/11/06 03:01:03;;;;;;;8.63;2.97;;;;;;;;;;5023587;28;20225;-69
2023/11/06 03:03:28;;;;;;;6.07;2.38;;;;;;;;;;5022720;28;20664;-70
2023/11/06 03:05:54;;;;;;;8.07;2.92;;;;;;;;;;5026530;28;20592;-69
2023/11/06 03:08:19;;;;;;;5.53;2.53;;;;;;;;;;5020468;28;20296;-70
2023/11/06 03:10:45;;;;;;;7.88;3.08;;;;;;;;;;5032214;28;20186;-72
2023/11/06 03:13:11;;;;;;;9.35;3.20;;;;;;;;;;5028961;28;20213;-70
2023/11/06 03:15:37;;;;;;;7.55;3.30;;;;;;;;;;5027465;28;20249;-74
2023/11/06 03:18:03;;;;;;;6.75;3.70;;;;;;;;;;5039904;28;20313;-71
2023/11/06 03:20:28;;;;;;;8.00;4.10;;;;;;;;;;5028688;28;20262;-71
2023/11/06 03:22:54;;;;;;;7.57;3.55;;;;;;;;;;5025401;28;20594;-72
2023/11/06 03:25:19;;;;;;;8.23;4.40;;;;;;;;;;5015479;28;20198;-73
2023/11/06 03:27:44;;;;;;;9.38;5.10;;;;;;;;;;5030257;28;20202;-71
2023/11/06 03:30:10;;;;;;;9.40;4.80;;;;;;;;;;5029866;28;20281;-70
2023/11/06 03:32:36;;;;;;;9.35;5.05;;;;;;;;;;5032535;28;20659;-70
2023/11/06 03:35:02;;;;;;;9.25;5.07;;;;;;;;;;5028610;28;20194;-69
2023/11/06 03:37:28;;;;;;;13.68;5.57;;;;;;;;;;5038975;28;20201;-70
2023/11/06 03:39:53;;;;;;;10.43;5.57;;;;;;;;;;5023602;28;20530;-69
2023/11/06 03:42:19;;;;;;;12.65;5.18;;;;;;;;;;5026863;28;20207;-72
2023/11/06 03:44:45;;;;;;;9.80;5.25;;;;;;;;;;5025427;28;20703;-70
2023/11/06 03:47:10;;;;;;;10.45;5.40;;;;;;;;;;5032258;28;20194;-69
2023/11/06 03:49:36;;;;;;;14.45;6.05;;;;;;;;;;5031453;28;20622;-69
2023/11/06 03:52:01;;;;;;;12.30;6.45;;;;;;;;;;5020783;28;20265;-70
2023/11/06 03:54:27;;;;;;;13.30;6.38;;;;;;;;;;5027705;28;20202;-69
2023/11/06 03:56:52;;;;;;;12.05;5.90;;;;;;;;;;5029860;28;20704;-69
2023/11/06 03:59:17;;;;;;;13.00;6.60;;;;;;;;;;5023781;28;20197;-70
2023/11/06 04:01:43;;;;;;;9.95;5.63;;;;;;;;;;5021476;28;20511;-69
2023/11/06 04:04:08;;;;;;;13.40;6.53;;;;;;;;;;5029277;28;20194;-69
2023/11/06 04:06:33;;;;;;;10.65;6.32;;;;;;;;;;5039604;28;20181;-69
2023/11/06 04:08:59;;;;;;;11.05;6.60;;;;;;;;;;5031150;28;20202;-70
2023/11/06 04:11:25;;;;;;;13.85;6.82;;;;;;;;;;5017742;28;20701;-70
2023/11/06 04:13:51;;;;;;;12.07;6.45;;;;;;;;;;5015403;28;20191;-70
2023/11/06 04:16:17;;;;;;;15.88;7.65;;;;;;;;;;5023272;28;20308;-70
2023/11/06 04:18:42;;;;;;;12.63;6.85;;;;;;;;;;5027292;28;20193;-70
2023/11/06 04:21:08;;;;;;;10.45;6.93;;;;;;;;;;5025687;28;20199;-70
2023/11/06 04:23:34;;;;;;;20.48;9.02;;;;;;;;;;5018092;28;20222;-69
2023/11/06 04:25:59;;;;;;;11.00;6.45;;;;;;;;;;5014284;28;20197;-70
2023/11/06 04:28:25;;;;;;;15.20;7.40;;;;;;;;;;5026694;28;20316;-71
2023/11/06 04:30:51;;;;;;;13.05;6.97;;;;;;;;;;5026585;28;20249;-70
2023/11/06 04:33:16;;;;;;;13.32;7.88;;;;;;;;;;5023688;28;20719;-71
2023/11/06 04:35:42;;;;;;;14.52;7.55;;;;;;;;;;5020655;28;20217;-71
2023/11/06 04:38:07;;;;;;;22.58;7.57;;;;;;;;;;5026545;28;20205;-71
2023/11/06 04:40:33;;;;;;;12.02;7.40;;;;;;;;;;5030738;28;20676;-71
2023/11/06 04:42:58;;;;;;;15.60;8.73;;;;;;;;;;5030431;28;20196;-72
2023/11/06 04:45:23;;;;;;;17.30;7.70;;;;;;;;;;5023035;28;20205;-71
2023/11/06 04:47:49;;;;;;;16.20;7.35;;;;;;;;;;5029240;28;20233;-70
2023/11/06 04:50:14;;;;;;;12.23;7.03;;;;;;;;;;5028919;28;20197;-71
2023/11/06 04:52:40;;;;;;;13.93;7.60;;;;;;;;;;5026801;28;20214;-71
2023/11/06 04:55:06;;;;;;;11.98;7.20;;;;;;;;;;5027940;28;20194;-70
2023/11/06 04:57:31;;;;;;;12.13;6.90;;;;;;;;;;5030347;28;20240;-72
2023/11/06 04:59:57;;;;;;;11.85;6.78;;;;;;;;;;5028765;28;20642;-71
2023/11/06 05:02:24;;;;;;;13.98;6.88;;;;;;;;;;5019104;28;20234;-70
2023/11/06 05:04:51;;;;;;;11.90;6.45;;;;;;;;;;5029391;28;20262;-72
2023/11/06 05:07:16;;;;;;;10.65;5.85;;;;;;;;;;5027677;28;20642;-72
2023/11/06 05:09:42;;;;;;;14.63;6.18;;;;;;;;;;5022438;28;20233;-70
2023/11/06 05:12:08;;;;;;;15.55;5.93;;;;;;;;;;5017481;28;20298;-70
2023/11/06 05:14:33;;;;;;;11.93;5.20;;;;;;;;;;5029073;28;20232;-70
2023/11/06 05:16:59;;;;;;;14.35;5.40;;;;;;;;;;5017271;28;20232;-71
2023/11/06 05:19:24;;;;;;;12.80;5.75;;;;;;;;;;5010990;28;20186;-70
2023/11/06 05:21:50;;;;;;;10.30;5.90;;;;;;;;;;5021192;28;20265;-70
2023/11/06 05:24:15;;;;;;;13.60;5.10;;;;;;;;;;5027935;28;20202;-69
2023/11/06 05:26:41;;;;;;;18.45;4.97;;;;;;;;;;5030154;28;20286;-70
2023/11/06 05:29:06;;;;;;;10.32;4.78;;;;;;;;;;5026087;28;20201;-71
2023/11/06 05:31:32;;;;;;;10.80;4.57;;;;;;;;;;5025620;28;20206;-69
2023/11/06 05:33:58;;;;;;;11.15;5.00;;;;;;;;;;5017219;28;20193;-71
2023/11/06 05:36:24;;;;;;;8.77;4.50;;;;;;;;;;5017892;28;20193;-70
2023/11/06 05:38:52;;;;;;;7.78;4.35;;;;;;;;;;5035660;28;20193;-70
2023/11/06 05:41:17;;;;;;;12.55;4.47;;;;;;;;;;5021481;28;20255;-70
2023/11/06 05:43:43;;;;;;;11.13;4.45;;;;;;;;;;5018380;28;20210;-70
2023/11/06 05:46:09;;;;;;;7.43;3.28;;;;;;;;;;5018584;28;20190;-70
2023/11/06 05:48:34;;;;;;;6.57;2.92;;;;;;;;;;5021755;28;20628;-70
2023/11/06 05:51:00;;;;;;;5.18;2.50;;;;;;;;;;5029852;28;20505;-73
2023/11/06 05:53:27;;;;;;;5.97;2.30;;;;;;;;;;5025296;28;20221;-71
2023/11/06 05:55:53;;;;;;;7.28;2.15;;;;;;;;;;5025999;28;20194;-73
2023/11/06 05:58:19;;;;;;;6.80;1.65;;;;;;;;;;5023399;28;20653;-71
2023/11/06 06:00:45;;;;;;;7.63;1.52;;;;;;;;;;5021064;28;20198;-71
2023/11/06 06:03:12;;;;;;;7.82;1.60;;;;;;;;;;5024644;28;20261;-70
2023/11/06 06:05:38;;;;;;;5.03;1.35;;;;;;;;;;5018509;28;20191;-70
2023/11/06 06:08:03;;;;;;;7.63;2.05;;;;;;;;;;5031073;28;20189;-72
2023/11/06 06:10:29;;;;;;;5.70;1.45;;;;;;;;;;5029311;28;20269;-70
2023/11/06 06:12:54;;;;;;;8.18;1.40;;;;;;;;;;5025861;28;20209;-70
2023/11/06 06:15:20;;;;;;;8.25;1.27;;;;;;;;;;5026080;28;20213;-69
2023/11/06 06:17:45;;;;;;;7.47;1.38;;;;;;;;;;5017149;28;20225;-70
2023/11/06 06:20:14;;;;;;;6.45;1.25;;;;;;;;;;5018862;28;20281;-72
2023/11/06 06:22:40;;;;;;;9.20;1.33;;;;;;;;;;5017683;28;20240;-70
2023/11/06 06:25:07;;;;;;;5.07;1.15;;;;;;;;;;5034931;28;20192;-71
2023/11/06 06:27:32;;;;;;;6.05;1.40;;;;;;;;;;5042137;28;20288;-72
2023/11/06 06:29:58;;;;;;;8.77;1.35;;;;;;;;;;5021013;28;20313;-71
2023/11/06 06:32:23;;;;;;;8.95;1.30;;;;;;;;;;5023266;28;20220;-70
2023/11/06 06:34:48;;;;;;;8.18;1.38;;;;;;;;;;5021527;28;20233;-71
2023/11/06 06:37:14;;;;;;;6.15;1.00;;;;;;;;;;5025280;28;20272;-69
2023/11/06 06:39:39;;;;;;;8.35;1.45;;;;;;;;;;5017508;28;20289;-71
2023/11/06 06:42:05;;;;;;;4.82;1.17;;;;;;;;;;5026976;28;20178;-69
2023/11/06 06:44:31;;;;;;;8.18;2.03;;;;;;;;;;5032134;28;20190;-69
2023/11/06 06:46:58;;;;;;;4.90;1.17;;;;;;;;;;5024400;28;20249;-69
2023/11/06 06:49:26;;;;;;;8.85;1.38;;;;;;;;;;5022374;28;20194;-69
2023/11/06 06:51:52;;;;;;;3.97;1.25;;;;;;;;;;5028030;28;20277;-69
2023/11/06 06:54:17;;;;;;;6.70;1.15;;;;;;;;;;5028799;28;20205;-69
2023/11/06 06:56:42;;;;;;;6.35;1.05;;;;;;;;;;5028913;28;20190;-69
2023/11/06 06:59:08;;;;;;;7.43;1.20;;;;;;;;;;5024666;28;20314;-69
2023/11/06 07:01:33;;;;;;;5.45;1.30;;;;;;;;;;5017610;28;20201;-69
2023/11/06 07:03:59;;;;;;;8.75;1.40;;;;;;;;;;5027207;28;20533;-69
2023/11/06 07:06:25;;;;;;;8.93;1.40;;;;;;;;;;5022689;28;20191;-69
2023/11/06 07:08:55;;;;;;;9.10;1.90;;;;;;;;;;5028196;28;20197;-70
2023/11/06 07:11:21;;;;;;;9.32;1.38;;;;;;;;;;5022557;28;20288;-70
2023/11/06 07:13:47;;;;;;;7.43;1.38;;;;;;;;;;5022916;28;20238;-70
2023/11/06 07:16:13;;;;;;;8.43;1.80;;;;;;;;;;5025036;28;20275;-69
2023/11/06 07:18:38;;;;;;;9.60;1.85;;;;;;;;;;5042728;28;20268;-70
2023/11/06 07:21:04;;;;;;;9.52;1.65;;;;;;;;;;5025474;28;20191;-70
2023/11/06 07:23:29;;;;;;;9.23;1.80;;;;;;;;;;5021762;28;20187;-69
2023/11/06 07:25:55;;;;;;;8.18;1.77;;;;;;;;;;5023449;28;20256;-69
2023/11/06 07:28:20;;;;;;;11.43;2.38;;;;;;;;;;5014874;28;20277;-70
2023/11/06 07:30:45;;;;;;;9.70;2.53;;;;;;;;;;5019719;28;20421;-69
2023/11/06 07:33:11;;;;;;;7.50;2.53;;;;;;;;;;5018151;28;20290;-69
2023/11/06 07:35:36;;;;;;;9.57;1.98;;;;;;;;;;5013388;28;20194;-69
2023/11/06 07:38:02;;;;;;;8.07;2.05;;;;;;;;;;5027468;28;20222;-71
2023/11/06 07:40:27;;;;;;;9.23;2.83;;;;;;;;;;5015424;28;20589;-69
2023/11/06 07:42:52;;;;;;;9.93;2.38;;;;;;;;;;5012075;28;20209;-68
2023/11/06 07:45:18;;;;;;;8.70;2.35;;;;;;;;;;5012764;28;20230;-70
2023/11/06 07:47:44;;;;;;;10.13;2.72;;;;;;;;;;5014406;28;20248;-70
2023/11/06 07:50:10;;;;;;;12.60;3.00;;;;;;;;;;5014146;28;20198;-69
2023/11/06 07:52:36;;;;;;;9.27;2.40;;;;;;;;;;5016316;28;20329;-69
2023/11/06 07:55:05;;;;;;;8.60;2.28;;;;;;;;;;5027856;28;20213;-70
2023/11/06 07:57:30;;;;;;;11.40;2.53;;;;;;;;;;5023085;28;20720;-70
2023/11/06 07:59:56;;;;;;;11.43;2.20;;;;;;;;;;5028887;28;20282;-72
2023/11/06 08:02:21;;;;;;;9.70;2.30;;;;;;;;;;4324539;28;10000713;-70
2023/11/06 08:04:50;;;;;;;9.55;2.35;;;;;;;;;;5038021;28;20183;-70
2023/11/06 08:07:15;;;;;;;13.40;2.60;;;;;;;;;;5026059;28;20207;-72
2023/11/06 08:09:41;;;;;;;10.75;2.63;;;;;;;;;;5021966;28;20194;-70
2023/11/06 08:12:14;;;;;;;12.98;2.67;;;;;;;;;;5022121;28;20759;-70
2023/11/06 08:14:43;;;;;;;12.45;2.40;;;;;;;;;;5032982;28;20328;-70
2023/11/06 08:17:08;;;;;;;12.30;2.38;;;;;;;;;;5032693;28;20279;-70
2023/11/06 08:19:39;;;;;;;13.60;3.40;;;;;;;;;;5020296;28;20231;-71
2023/11/06 08:22:07;;;;;;;13.02;2.22;;;;;;;;;;5025203;28;20214;-69
2023/11/06 08:24:33;;;;;;;14.63;2.60;;;;;;;;;;5018088;28;20187;-70
2023/11/06 08:26:59;;;;;;;13.15;3.08;;;;;;;;;;5019271;28;20259;-68
2023/11/06 08:29:24;;;;;;;10.00;2.35;;;;;;;;;;5029478;28;20194;-70
2023/11/06 08:31:49;;;;;;;11.52;2.45;;;;;;;;;;5021221;28;20206;-72
2023/11/06 08:34:15;;;;;;;14.43;2.63;;;;;;;;;;5023551;28;20665;-69
2023/11/06 08:36:44;;;;;;;14.30;2.70;;;;;;;;;;5033514;28;20198;-69
2023/11/06 08:39:10;;;;;;;17.33;3.08;;;;;;;;;;5021989;28;20324;-74
2023/11/06 08:41:35;;;;;;;12.10;2.67;;;;;;;;;;5011199;28;20805;-71
2023/11/06 08:44:01;;;;;;;14.63;2.42;;;;;;;;;;5044422;28;20194;-70
2023/11/06 08:46:26;;;;;;;11.68;2.35;;;;;;;;;;5018920;28;20287;-72
2023/11/06 08:48:51;;;;;;;12.50;2.70;;;;;;;;;;5027762;28;20198;-70
2023/11/06 08:51:17;;;;;;;9.00;2.20;;;;;;;;;;5020035;28;20194;-70
2023/11/06 08:53:42;;;;;;;12.02;2.38;;;;;;;;;;5023844;28;20244;-72
2023/11/06 08:56:08;;;;;;;12.88;2.08;;;;;;;;;;5027487;28;20190;-71
2023/11/06 08:58:36;;;;;;;11.27;2.28;;;;;;;;;;5043797;28;20273;-70
2023/11/06 09:01:02;;;;;;;12.48;2.20;;;;;;;;;;5013047;28;20328;-73
2023/11/06 09:03:28;;;;;;;11.98;2.60;;;;;;;;;;5036547;28;20469;-70
2023/11/06 09:05:53;;;;;;;10.93;2.42;;;;;;;;;;5017288;28;20259;-71
2023/11/06 09:08:19;;;;;;;9.93;2.08;;;;;;;;;;5027655;28;20276;-71
2023/11/06 09:10:44;;;;;;;8.45;1.80;;;;;;;;;;5022377;28;20335;-70
2023/11/06 09:13:11;;;;;;;6.50;1.65;;;;;;;;;;5036270;28;20645;-74
2023/11/06 09:15:38;;;;;;;9.25;1.50;;;;;;;;;;5027673;28;20241;-69
2023/11/06 09:18:04;;;;;;;9.60;1.58;;;;;;;;;;5025562;28;20198;-69
2023/11/06 09:20:30;;;;;;;9.80;2.03;;;;;;;;;;5024541;28;20190;-71
2023/11/06 09:22:55;;;;;;;9.07;1.60;;;;;;;;;;5023171;28;20182;-69
2023/11/06 09:25:21;;;;;;;9.15;1.83;;;;;;;;;;5020587;28;20233;-73
2023/11/06 09:27:47;;;;;;;9.57;1.67;;;;;;;;;;5037074;28;20187;-71
2023/11/06 09:30:13;;;;;;;15.93;1.90;;;;;;;;;;5023639;28;20217;-69
2023/11/06 09:32:38;;;;;;;7.53;1.33;;;;;;;;;;5023988;28;20214;-70
2023/11/06 09:35:04;;;;;;;8.70;1.65;;;;;;;;;;5022991;28;20512;-70
2023/11/06 09:37:30;;;;;;;7.35;1.58;;;;;;;;;;5024003;28;20182;-70
2023/11/06 09:39:56;;;;;;;5.10;1.65;;;;;;;;;;5023906;28;20186;-69
2023/11/06 09:42:22;;;;;;;10.43;1.83;;;;;;;;;;5024181;28;20190;-73
2023/11/06 09:44:48;;;;;;;7.53;1.80;;;;;;;;;;5022158;28;20193;-70
2023/11/06 09:47:15;;;;;;;13.20;2.40;;;;;;;;;;5023680;28;20186;-72
2023/11/06 09:49:56;;;;;;;8.10;1.50;;;;;;;;;;5024602;28;20193;-71
2023/11/06 09:52:22;;;;;;;13.00;1.90;;;;;;;;;;5022146;28;20259;-70
2023/11/06 09:54:50;;;;;;;9.63;1.75;;;;;;;;;;5022627;28;20590;-71
2023/11/06 09:57:16;;;;;;;5.65;1.63;;;;;;;;;;5023063;28;20323;-71
2023/11/06 09:59:41;;;;;;;9.85;1.55;;;;;;;;;;5023153;28;20277;-70
2023/11/06 10:02:08;;;;;;;12.00;2.00;;;;;;;;;;5023762;28;20268;-72
2023/11/06 10:04:36;;;;;;;7.43;1.73;;;;;;;;;;5021461;28;20524;-72
2023/11/06 10:07:02;;;;;;;8.85;1.88;;;;;;;;;;5018860;28;20477;-72
2023/11/06 10:09:27;;;;;;;11.15;2.05;;;;;;;;;;5024026;28;20731;-72
2023/11/06 10:11:57;;;;;;;8.65;1.63;;;;;;;;;;5022733;28;20241;-72
2023/11/06 10:14:38;;;;;;;11.73;1.70;;;;;;;;;;5023205;28;20526;-71
2023/11/06 10:17:04;;;;;;;16.42;1.95;;;;;;;;;;5022111;28;20260;-70
2023/11/06 10:19:30;;;;;;;11.77;2.03;;;;;;;;;;5022966;28;20182;-70
2023/11/06 10:21:56;;;;;;;11.43;1.70;;;;;;;;;;5024026;28;20193;-70
2023/11/06 10:24:21;;;;;;;9.00;2.17;;;;;;;;;;5024326;28;20198;-70
2023/11/06 10:26:46;;;;;;;14.20;2.25;;;;;;;;;;5021087;28;20194;-72
2023/11/06 10:29:13;;;;;;;14.93;2.65;;;;;;;;;;5023290;28;20221;-71
2023/11/06 10:31:42;;;;;;;14.15;2.08;;;;;;;;;;5023580;28;20178;-71
2023/11/06 10:34:28;;;;;;;10.57;1.98;;;;;;;;;;5019693;28;20190;-73
2023/11/06 10:37:10;;;;;;;10.90;2.25;;;;;;;;;;5020029;28;20189;-73
2023/11/06 10:39:38;;;;;;;14.52;2.90;;;;;;;;;;5028785;28;20190;-71
2023/11/06 10:42:05;;;;;;;12.77;2.00;;;;;;;;;;5024645;28;20525;-71
2023/11/06 10:44:33;;;;;;;12.02;2.50;;;;;;;;;;5018983;28;20591;-71
2023/11/06 10:47:08;;;;;;;12.90;2.13;;;;;;;;;;5027304;28;20198;-71
2023/11/06 10:49:46;;;;;;;13.60;2.75;;;;;;;;;;5022541;28;20241;-74
2023/11/06 10:52:12;;;;;;;11.70;2.20;;;;;;;;;;5025933;28;20210;-71
2023/11/06 10:54:39;;;;;;;9.32;2.67;;;;;;;;;;5022690;28;20265;-72
2023/11/06 10:57:07;;;;;;;11.20;2.60;;;;;;;;;;5024252;28;20197;-71
2023/11/06 10:59:33;;;;;;;14.15;2.22;;;;;;;;;;5031677;28;20592;-74
2023/11/06 11:01:59;;;;;;;10.93;2.30;;;;;;;;;;5015683;28;20182;-71
2023/11/06 11:04:28;;;;;;;12.00;2.35;;;;;;;;;;5035909;28;20252;-71
2023/11/06 11:06:53;;;;;;;7.80;1.80;;;;;;;;;;5020416;28;20241;-71
2023/11/06 11:09:19;;;;;;;8.90;1.98;;;;;;;;;;5026949;28;20198;-72
2023/11/06 11:11:45;;;;;;;13.35;2.08;;;;;;;;;;5024945;28;20260;-69
2023/11/06 11:14:12;;;;;;;14.48;2.28;;;;;;;;;;5020854;28;20194;-71
2023/11/06 11:16:45;;;;;;;8.95;2.70;;;;;;;;;;5017850;28;20226;-70
2023/11/06 11:19:27;;;;;;;12.38;2.45;;;;;;;;;;5015769;28;20238;-73
2023/11/06 11:22:09;;;;;;;12.73;2.13;;;;;;;;;;5015102;28;20214;-71
2023/11/06 11:24:53;;;;;;;16.92;2.28;;;;;;;;;;5026045;28;20194;-72
2023/11/06 11:27:27;;;;;;;15.88;2.30;;;;;;;;;;5025175;28;20187;-74
2023/11/06 11:29:56;;;;;;;13.57;2.92;;;;;;;;;;5026926;28;20197;-70
2023/11/06 11:32:33;;;;;;;7.95;1.75;;;;;;;;;;5028887;28;20289;-70
2023/11/06 11:35:19;;;;;;;9.88;2.03;;;;;;;;;;5030572;28;20599;-74
2023/11/06 11:37:58;;;;;;;10.82;1.60;;;;;;;;;;5025837;28;20199;-72
2023/11/06 11:40:38;;;;;;;12.45;2.60;;;;;;;;;;5031050;28;20243;-72
2023/11/06 11:43:36;;;;;;;11.88;1.90;;;;;;;;;;5028530;28;20185;-73
2023/11/06 11:46:02;;;;;;;9.35;1.80;;;;;;;;;;4997250;28;20617;-70
2023/11/06 11:48:49;;;;;;;14.43;2.13;;;;;;;;;;5029300;28;20206;-73
2023/11/06 11:51:49;;;;;;;10.32;2.30;;;;;;;;;;5030558;28;20264;-71
2023/11/06 11:54:24;;;;;;;11.55;2.10;;;;;;;;;;5027867;28;20198;-69
2023/11/06 11:56:51;;;;;;;12.20;1.70;;;;;;;;;;5018232;28;20553;-72
2023/11/06 11:59:17;;;;;;;11.88;1.98;;;;;;;;;;5032392;28;20344;-70
2023/11/06 12:01:44;;;;;;;10.45;2.88;;;;;;;;;;5031345;28;20600;-71
2023/11/06 12:04:20;;;;;;;11.52;1.88;;;;;;;;;;5032744;28;20185;-73
2023/11/06 12:07:06;;;;;;;13.95;2.25;;;;;;;;;;5030456;28;20197;-69
2023/11/06 12:09:48;;;;;;;10.07;1.98;;;;;;;;;;5034531;28;20205;-70
2023/11/06 12:12:27;;;;;;;12.45;1.92;;;;;;;;;;5035280;28;20303;-69
2023/11/06 12:14:54;;;;;;;11.82;2.28;;;;;;;;;;5016796;28;20344;-70
2023/11/06 12:17:34;;;;;;;9.25;2.00;;;;;;;;;;5027975;28;20234;-70
2023/11/06 12:20:01;;;;;;;11.02;2.28;;;;;;;;;;5019534;28;20206;-70
2023/11/06 12:22:33;;;;;;;13.40;2.17;;;;;;;;;;5021710;28;20187;-71
2023/11/06 12:24:59;;;;;;;9.32;1.65;;;;;;;;;;5019135;28;20190;-71
2023/11/06 12:27:37;;;;;;;12.52;2.05;;;;;;;;;;5031243;28;20190;-69
2023/11/06 12:30:08;;;;;;;9.75;1.95;;;;;;;;;;5032246;28;20202;-70
2023/11/06 12:32:35;;;;;;;10.80;1.95;;;;;;;;;;5019158;28;20198;-70
2023/11/06 12:35:19;;;;;;;10.13;2.15;;;;;;;;;;5031792;28;20205;-71
2023/11/06 12:37:54;;;;;;;9.00;1.90;;;;;;;;;;5019158;28;20186;-72
2023/11/06 12:40:27;;;;;;;10.30;2.08;;;;;;;;;;5022470;28;20194;-70
2023/11/06 12:42:55;;;;;;;12.55;2.00;;;;;;;;;;5033587;28;20191;-74
2023/11/06 12:45:36;;;;;;;5.95;1.70;;;;;;;;;;5018616;28;20214;-75
2023/11/06 12:48:28;;;;;;;10.43;1.83;;;;;;;;;;5008779;28;20193;-74
2023/11/06 12:51:03;;;;;;;10.38;1.75;;;;;;;;;;5026887;28;20216;-71
2023/11/06 12:53:28;;;;;;;10.93;2.17;;;;;;;;;;5021384;28;20202;-69
2023/11/06 12:55:54;;;;;;;10.25;1.85;;;;;;;;;;5028175;28;20224;-70
2023/11/06 12:58:21;;;;;;;10.05;1.90;;;;;;;;;;5039895;28;20332;-71
2023/11/06 13:00:55;;;;;;;13.13;2.05;;;;;;;;;;5024969;28;20255;-69
2023/11/06 13:03:20;;;;;;;9.77;2.13;;;;;;;;;;5020210;28;20209;-69
2023/11/06 13:05:46;;;;;;;9.55;1.88;;;;;;;;;;5025694;28;20587;-69
2023/11/06 13:08:16;;;;;;;8.02;1.80;;;;;;;;;;5020680;28;20195;-70
2023/11/06 13:10:42;;;;;;;9.27;1.90;;;;;;;;;;5025409;28;20193;-70
2023/11/06 13:13:08;;;;;;;13.65;2.17;;;;;;;;;;5024860;28;20213;-71
2023/11/06 13:15:34;;;;;;;15.60;2.55;;;;;;;;;;5028528;28;22428;-72
2023/11/06 13:18:00;;;;;;;9.48;1.88;;;;;;;;;;5030228;28;20284;-69
2023/11/06 13:20:31;;;;;;;10.77;1.63;;;;;;;;;;5026823;28;20186;-70
2023/11/06 13:22:57;;;;;;;13.40;1.90;;;;;;;;;;5023183;28;20182;-69
2023/11/06 13:25:27;;;;;;;8.15;1.55;;;;;;;;;;5045728;28;20687;-69
2023/11/06 13:27:56;;;;;;;9.60;1.83;;;;;;;;;;5028791;28;20198;-69
2023/11/06 13:30:23;;;;;;;14.38;2.10;;;;;;;;;;5027936;28;20252;-69
2023/11/06 13:32:50;;;;;;;12.43;1.83;;;;;;;;;;5023389;28;20231;-70
2023/11/06 13:35:16;;;;;;;10.32;2.03;;;;;;;;;;5027457;28;20186;-70
2023/11/06 13:37:42;;;;;;;12.45;2.08;;;;;;;;;;5018648;28;20284;-70
2023/11/06 13:40:22;;;;;;;10.55;2.67;;;;;;;;;;5017634;28;20278;-71
2023/11/06 13:42:52;;;;;;;6.43;1.40;;;;;;;;;;5029801;28;20654;-71
2023/11/06 13:45:21;;;;;;;7.00;1.85;;;;;;;;;;5027550;28;20626;-70
2023/11/06 13:47:52;;;;;;;13.75;2.13;;;;;;;;;;5016337;28;20187;-70
2023/11/06 13:50:33;;;;;;;10.32;2.00;;;;;;;;;;5026345;28;20531;-70
2023/11/06 13:53:47;;;;;;;9.00;2.17;;;;;;;;;;5016547;28;20223;-70
2023/11/06 13:55:49;;;;;;;6.78;1.48;;;;;;;;;;5017043;28;20257;-70
2023/11/06 13:58:15;;;;;;;8.48;2.10;;;;;;;;;;5034903;28;20198;-71
2023/11/06 14:00:48;;;;;;;11.85;2.38;;;;;;;;;;5019685;28;20273;-71
2023/11/06 14:03:15;;;;;;;9.85;1.70;;;;;;;;;;5022340;28;20194;-71
2023/11/06 14:05:48;;;;;;;9.70;1.80;;;;;;;;;;5019039;28;20178;-71
2023/11/06 14:08:24;;;;;;;8.05;1.80;;;;;;;;;;5027985;28;20684;-70
2023/11/06 14:10:50;;;;;;;7.65;1.85;;;;;;;;;;5018757;28;20550;-70
2023/11/06 14:13:23;;;;;;;9.27;2.20;;;;;;;;;;5038225;28;20249;-73
2023/11/06 14:15:53;;;;;;;7.40;1.70;;;;;;;;;;5022982;28;20206;-70
2023/11/06 14:18:27;;;;;;;7.80;1.95;;;;;;;;;;5026189;28;20185;-72
2023/11/06 14:20:55;;;;;;;8.77;1.83;;;;;;;;;;5032524;28;20623;-70
2023/11/06 14:23:25;;;;;;;14.38;2.08;;;;;;;;;;5026621;28;20194;-71
2023/11/06 14:25:51;;;;;;;11.02;2.10;;;;;;;;;;5017422;28;20190;-70
2023/11/06 14:28:20;;;;;;;13.82;1.88;;;;;;;;;;5023717;28;20182;-71
2023/11/06 14:30:49;;;;;;;10.57;1.90;;;;;;;;;;5019191;28;20226;-72
2023/11/06 14:33:18;;;;;;;10.90;1.73;;;;;;;;;;5009067;28;20585;-71
2023/11/06 14:35:44;;;;;;;12.10;2.20;;;;;;;;;;5018939;28;20218;-71
2023/11/06 14:38:11;;;;;;;14.57;2.03;;;;;;;;;;5016676;28;20237;-71